sensor_id;sensor_type;location;lat;lon;timestamp;temperature;humidity
45315;SHT31;31051;51.540;5.852;2023-07-09T00:05:10;20.9;78.9
45315;SHT31;31051;51.540;5.852;2023-07-09T00:17:59;20.9;79.9
45315;SHT31;31051;51.540;5.852;2023-07-09T00:30:57;21.0;79.0
45315;SHT31;31051;51.540;5.852;2023-07-09T00:43:46;21.1;78.6
45315;SHT31;31051;51.540;5.852;2023-07-09T00:56:44;21.1;77.9
45315;SHT31;31051;51.540;5.852;2023-07-09T01:09:33;20.8;79.0
45315;SHT31;31051;51.540;5.852;2023-07-09T01:22:22;20.9;78.5
45315;SHT31;31051;51.540;5.852;2023-07-09T01:35:21;20.7;79.0
45315;SHT31;31051;51.540;5.852;2023-07-09T01:48:19;20.3;80.0
45315;SHT31;31051;51.540;5.852;2023-07-09T02:01:07;20.2;81.7
45315;SHT31;31051;51.540;5.852;2023-07-09T02:13:56;20.4;79.8
45315;SHT31;31051;51.540;5.852;2023-07-09T02:26:45;20.1;79.5
45315;SHT31;31051;51.540;5.852;2023-07-09T02:39:44;19.9;80.2
45315;SHT31;31051;51.540;5.852;2023-07-09T02:52:33;19.7;81.2
45315;SHT31;31051;51.540;5.852;2023-07-09T03:05:32;19.5;81.6
45315;SHT31;31051;51.540;5.852;2023-07-09T03:18:21;19.4;82.1
45315;SHT31;31051;51.540;5.852;2023-07-09T03:31:20;19.3;82.4
45315;SHT31;31051;51.540;5.852;2023-07-09T03:44:20;19.2;83.7
45315;SHT31;31051;51.540;5.852;2023-07-09T03:57:19;19.2;84.2
45315;SHT31;31051;51.540;5.852;2023-07-09T04:10:18;19.2;83.8
45315;SHT31;31051;51.540;5.852;2023-07-09T04:23:07;19.3;83.9
45315;SHT31;31051;51.540;5.852;2023-07-09T04:36:06;19.6;84.0
45315;SHT31;31051;51.540;5.852;2023-07-09T04:49:05;19.9;83.6
45315;SHT31;31051;51.540;5.852;2023-07-09T05:01:53;20.2;83.8
45315;SHT31;31051;51.540;5.852;2023-07-09T05:14:43;20.8;83.5
45315;SHT31;31051;51.540;5.852;2023-07-09T05:27:42;21.3;82.8
45315;SHT31;31051;51.540;5.852;2023-07-09T05:40:41;22.1;79.7
45315;SHT31;31051;51.540;5.852;2023-07-09T05:53:29;22.7;73.0
45315;SHT31;31051;51.540;5.852;2023-07-09T06:06:16;23.6;71.3
45315;SHT31;31051;51.540;5.852;2023-07-09T06:19:04;24.2;69.5
45315;SHT31;31051;51.540;5.852;2023-07-09T06:31:51;24.7;68.2
45315;SHT31;31051;51.540;5.852;2023-07-09T06:44:39;25.8;64.5
45315;SHT31;31051;51.540;5.852;2023-07-09T06:57:26;26.7;62.0
45315;SHT31;31051;51.540;5.852;2023-07-09T07:10:13;27.6;60.6
45315;SHT31;31051;51.540;5.852;2023-07-09T07:23:01;28.3;57.5
45315;SHT31;31051;51.540;5.852;2023-07-09T07:35:48;28.7;57.7
45315;SHT31;31051;51.540;5.852;2023-07-09T07:48:36;29.4;56.5
45315;SHT31;31051;51.540;5.852;2023-07-09T08:01:23;30.1;53.5
45315;SHT31;31051;51.540;5.852;2023-07-09T08:14:11;30.2;50.6
45315;SHT31;31051;51.540;5.852;2023-07-09T08:26:58;30.5;54.0
45315;SHT31;31051;51.540;5.852;2023-07-09T08:39:46;31.2;48.1
45315;SHT31;31051;51.540;5.852;2023-07-09T08:52:33;31.3;47.0
45315;SHT31;31051;51.540;5.852;2023-07-09T09:05:21;31.3;48.0
45315;SHT31;31051;51.540;5.852;2023-07-09T09:18:08;31.6;52.3
45315;SHT31;31051;51.540;5.852;2023-07-09T09:30:56;31.9;50.9
45315;SHT31;31051;51.540;5.852;2023-07-09T09:43:44;32.1;49.4
45315;SHT31;31051;51.540;5.852;2023-07-09T09:56:31;32.2;46.7
45315;SHT31;31051;51.540;5.852;2023-07-09T10:09:19;34.3;41.5
45315;SHT31;31051;51.540;5.852;2023-07-09T10:22:06;35.4;40.2
45315;SHT31;31051;51.540;5.852;2023-07-09T10:34:54;35.1;38.1
45315;SHT31;31051;51.540;5.852;2023-07-09T10:47:42;34.1;41.2
45315;SHT31;31051;51.540;5.852;2023-07-09T11:00:29;33.6;41.6
45315;SHT31;31051;51.540;5.852;2023-07-09T11:13:17;33.4;42.6
45315;SHT31;31051;51.540;5.852;2023-07-09T11:26:04;34.4;45.9
45315;SHT31;31051;51.540;5.852;2023-07-09T11:38:52;33.1;43.5
45315;SHT31;31051;51.540;5.852;2023-07-09T11:51:39;33.1;43.1
45315;SHT31;31051;51.540;5.852;2023-07-09T12:04:27;32.7;45.1
45315;SHT31;31051;51.540;5.852;2023-07-09T12:17:14;32.8;47.5
45315;SHT31;31051;51.540;5.852;2023-07-09T12:30:02;32.5;44.1
45315;SHT31;31051;51.540;5.852;2023-07-09T12:42:49;32.5;45.8
45315;SHT31;31051;51.540;5.852;2023-07-09T12:55:37;32.3;48.0
45315;SHT31;31051;51.540;5.852;2023-07-09T13:08:25;32.0;46.1
45315;SHT31;31051;51.540;5.852;2023-07-09T13:21:12;31.3;52.0
45315;SHT31;31051;51.540;5.852;2023-07-09T13:34:00;30.7;54.9
45315;SHT31;31051;51.540;5.852;2023-07-09T13:46:47;29.9;58.3
45315;SHT31;31051;51.540;5.852;2023-07-09T13:59:34;28.8;63.2
45315;SHT31;31051;51.540;5.852;2023-07-09T14:12:22;26.8;72.3
45315;SHT31;31051;51.540;5.852;2023-07-09T14:25:09;23.8;81.0
45315;SHT31;31051;51.540;5.852;2023-07-09T14:37:58;22.4;87.2
45315;SHT31;31051;51.540;5.852;2023-07-09T14:50:46;23.5;85.0
45315;SHT31;31051;51.540;5.852;2023-07-09T15:03:33;23.7;83.9
45315;SHT31;31051;51.540;5.852;2023-07-09T15:16:21;23.8;82.1
45315;SHT31;31051;51.540;5.852;2023-07-09T15:29:08;24.3;80.0
45315;SHT31;31051;51.540;5.852;2023-07-09T15:41:56;24.3;76.9
45315;SHT31;31051;51.540;5.852;2023-07-09T15:54:43;24.2;79.1
45315;SHT31;31051;51.540;5.852;2023-07-09T16:07:31;24.1;77.5
45315;SHT31;31051;51.540;5.852;2023-07-09T16:20:19;24.2;76.6
45315;SHT31;31051;51.540;5.852;2023-07-09T16:33:06;24.0;76.7
45315;SHT31;31051;51.540;5.852;2023-07-09T16:45:53;24.0;75.8
45315;SHT31;31051;51.540;5.852;2023-07-09T16:58:41;24.4;75.0
45315;SHT31;31051;51.540;5.852;2023-07-09T17:11:28;25.0;74.5
45315;SHT31;31051;51.540;5.852;2023-07-09T17:24:16;24.8;73.9
45315;SHT31;31051;51.540;5.852;2023-07-09T17:37:03;24.8;74.7
45315;SHT31;31051;51.540;5.852;2023-07-09T17:49:50;24.4;75.3
45315;SHT31;31051;51.540;5.852;2023-07-09T18:02:38;23.9;77.2
45315;SHT31;31051;51.540;5.852;2023-07-09T18:15:27;23.3;80.3
45315;SHT31;31051;51.540;5.852;2023-07-09T18:28:25;23.2;80.2
45315;SHT31;31051;51.540;5.852;2023-07-09T18:41:13;23.5;78.9
45315;SHT31;31051;51.540;5.852;2023-07-09T18:54:00;23.2;79.8
45315;SHT31;31051;51.540;5.852;2023-07-09T19:06:49;22.7;81.5
45315;SHT31;31051;51.540;5.852;2023-07-09T19:19:47;22.2;83.3
45315;SHT31;31051;51.540;5.852;2023-07-09T19:32:36;21.9;84.1
45315;SHT31;31051;51.540;5.852;2023-07-09T19:45:24;21.9;83.5
45315;SHT31;31051;51.540;5.852;2023-07-09T19:58:12;21.6;83.0
45315;SHT31;31051;51.540;5.852;2023-07-09T20:11:01;21.5;82.6
45315;SHT31;31051;51.540;5.852;2023-07-09T20:23:49;21.2;83.2
45315;SHT31;31051;51.540;5.852;2023-07-09T20:36:38;21.0;84.3
45315;SHT31;31051;51.540;5.852;2023-07-09T20:49:27;20.9;84.9
45315;SHT31;31051;51.540;5.852;2023-07-09T21:02:26;21.0;85.0
45315;SHT31;31051;51.540;5.852;2023-07-09T21:15:25;21.1;84.6
45315;SHT31;31051;51.540;5.852;2023-07-09T21:28:14;20.7;85.4
45315;SHT31;31051;51.540;5.852;2023-07-09T21:41:13;20.5;86.1
45315;SHT31;31051;51.540;5.852;2023-07-09T21:54:02;20.2;86.8
45315;SHT31;31051;51.540;5.852;2023-07-09T22:07:00;20.1;86.9
45315;SHT31;31051;51.540;5.852;2023-07-09T22:19:49;19.9;87.4
45315;SHT31;31051;51.540;5.852;2023-07-09T22:32:37;19.8;87.7
45315;SHT31;31051;51.540;5.852;2023-07-09T22:45:25;19.7;87.8
45315;SHT31;31051;51.540;5.852;2023-07-09T22:58:14;19.5;88.2
45315;SHT31;31051;51.540;5.852;2023-07-09T23:11:03;19.3;88.3
45315;SHT31;31051;51.540;5.852;2023-07-09T23:24:01;19.1;89.1
45315;SHT31;31051;51.540;5.852;2023-07-09T23:36:51;19.0;89.2
45315;SHT31;31051;51.540;5.852;2023-07-09T23:49:50;18.8;88.6
